Time;durP1;ratioP1;P1;durP2;ratioP2;P2;SDS_P1;SDS_P2;PMS_P1;PMS_P2;Temp;Humidity;BMP_temperature;BMP_pressure;BME280_temperature;BME280_humidity;BME280_pressure;Samples;Min_cycle;Max_cycle;Signal;HPM_P1;HPM_P2
2022/06/14 00:03:40;;;;;;;0.20;0.20;;;12.00;99.90;;;;;;4894141;29;20108;-67
2022/06/14 00:06:20;;;;;;;0.10;0.10;;;12.10;99.90;;;;;;4903694;29;20489;-67
2022/06/14 00:08:46;;;;;;;0.00;0.00;;;12.00;99.90;;;;;;4914757;29;20519;-67
2022/06/14 00:11:15;;;;;;;0.22;0.22;;;12.00;99.90;;;;;;4915119;29;20050;-67
2022/06/14 00:13:41;;;;;;;0.20;0.20;;;12.00;99.90;;;;;;4899102;29;20442;-67
2022/06/14 00:16:08;;;;;;;0.00;0.00;;;12.00;99.90;;;;;;4912854;29;20040;-67
2022/06/14 00:18:34;;;;;;;0.38;0.38;;;11.90;99.90;;;;;;4910541;29;20052;-67
2022/06/14 00:21:00;;;;;;;0.30;0.30;;;11.90;99.90;;;;;;4895782;29;20489;-67
2022/06/14 00:23:26;;;;;;;0.10;0.10;;;11.80;99.90;;;;;;4910877;29;20040;-67
2022/06/14 00:25:54;;;;;;;2.40;0.85;;;11.70;99.90;;;;;;4915954;29;20046;-67
2022/06/14 00:28:21;;;;;;;0.10;0.10;;;11.80;99.90;;;;;;4906309;29;20065;-67
2022/06/14 00:30:49;;;;;;;0.10;0.10;;;11.80;99.90;;;;;;4897724;29;20392;-67
2022/06/14 00:33:15;;;;;;;0.10;0.10;;;11.80;99.90;;;;;;4896705;29;20564;-67
2022/06/14 00:35:41;;;;;;;0.00;0.00;;;11.70;99.90;;;;;;4897633;29;20489;-67
2022/06/14 00:38:09;;;;;;;0.10;0.10;;;11.80;99.90;;;;;;4905656;29;20044;-67
2022/06/14 00:40:36;;;;;;;0.30;0.17;;;11.80;99.90;;;;;;4901146;29;20056;-67
2022/06/14 00:43:05;;;;;;;0.10;0.10;;;11.70;99.90;;;;;;4898211;29;20051;-67
2022/06/14 00:45:30;;;;;;;0.10;0.10;;;11.70;99.90;;;;;;4895459;29;20538;-67
2022/06/14 00:48:08;;;;;;;1.65;0.63;;;11.70;99.90;;;;;;4895853;29;20052;-67
2022/06/14 00:50:39;;;;;;;0.10;0.10;;;11.70;99.90;;;;;;4904517;29;20567;-67
2022/06/14 00:53:18;;;;;;;0.20;0.20;;;11.60;99.90;;;;;;4915964;29;20480;-67
2022/06/14 00:55:54;;;;;;;0.10;0.10;;;11.50;99.90;;;;;;4915613;29;20078;-67
2022/06/14 00:58:26;;;;;;;1.00;0.93;;;11.50;99.90;;;;;;4901861;29;20056;-67
2022/06/14 01:01:10;;;;;;;0.85;0.85;;;11.60;99.90;;;;;;4897230;29;20173;-67
2022/06/14 01:03:42;;;;;;;0.10;0.10;;;11.60;99.90;;;;;;4910089;29;20465;-67
2022/06/14 01:06:14;;;;;;;0.10;0.10;;;11.50;99.90;;;;;;4914999;29;20138;-67
2022/06/14 01:08:48;;;;;;;0.10;0.10;;;11.50;99.90;;;;;;4912767;29;20665;-67
2022/06/14 01:11:20;;;;;;;0.55;0.55;;;11.50;99.90;;;;;;4909972;29;20080;-67
2022/06/14 01:13:46;;;;;;;0.22;0.22;;;11.50;99.90;;;;;;4915940;29;20051;-67
2022/06/14 01:16:12;;;;;;;0.00;0.00;;;11.40;99.90;;;;;;4915123;29;20052;-67
2022/06/14 01:18:39;;;;;;;0.10;0.10;;;11.50;99.90;;;;;;4915345;29;20165;-67
2022/06/14 01:21:05;;;;;;;0.10;0.10;;;11.40;99.90;;;;;;4901691;29;20540;-67
2022/06/14 01:23:31;;;;;;;0.40;0.40;;;11.40;99.90;;;;;;4894616;29;20049;-67
2022/06/14 01:26:16;;;;;;;0.63;0.63;;;11.30;99.90;;;;;;4895859;29;20421;-67
2022/06/14 01:28:46;;;;;;;0.00;0.00;;;11.40;99.90;;;;;;4897672;29;20056;-67
2022/06/14 01:31:14;;;;;;;0.20;0.20;;;11.30;99.90;;;;;;4895204;29;20095;-67
2022/06/14 01:33:44;;;;;;;0.45;0.45;;;11.30;99.90;;;;;;4905484;29;20098;-67
2022/06/14 01:36:17;;;;;;;0.43;0.43;;;11.20;99.90;;;;;;4910587;29;20059;-67
2022/06/14 01:38:45;;;;;;;0.10;0.10;;;11.20;99.90;;;;;;4897816;29;20143;-67
2022/06/14 01:41:17;;;;;;;0.40;0.40;;;11.30;99.90;;;;;;4915281;29;20389;-67
2022/06/14 01:44:00;;;;;;;0.00;0.00;;;11.20;99.90;;;;;;4910551;29;20044;-67
2022/06/14 01:46:27;;;;;;;;;;;11.20;99.90;;;;;;4914179;29;20083;-67
2022/06/14 01:52:11;;;;;;;0.10;0.10;;;11.10;99.90;;;;;;4898259;29;20064;-67
2022/06/14 01:54:43;;;;;;;0.10;0.10;;;11.20;99.90;;;;;;4894830;29;20052;-67
2022/06/14 01:57:15;;;;;;;0.20;0.20;;;11.20;99.90;;;;;;4894409;29;20063;-67
2022/06/14 01:59:58;;;;;;;0.10;0.10;;;11.30;99.90;;;;;;4896070;29;20045;-67
2022/06/14 02:02:28;;;;;;;0.25;0.25;;;11.20;99.90;;;;;;4895714;29;20128;-67
2022/06/14 02:05:01;;;;;;;0.10;0.10;;;11.30;99.90;;;;;;4894665;29;20093;-67
2022/06/14 02:07:49;;;;;;;0.10;0.10;;;11.20;99.90;;;;;;4910509;29;20134;-67
2022/06/14 02:10:23;;;;;;;0.10;0.10;;;11.20;99.90;;;;;;4914895;29;20048;-67
2022/06/14 02:13:13;;;;;;;0.20;0.20;;;11.20;99.90;;;;;;4914491;29;20124;-67
2022/06/14 02:15:42;;;;;;;0.10;0.10;;;11.20;99.90;;;;;;4901404;29;20142;-67
2022/06/14 02:18:36;;;;;;;1.05;0.95;;;11.30;99.90;;;;;;4895305;29;20405;-67
2022/06/14 02:21:05;;;;;;;;;;;11.40;99.90;;;;;;4895914;29;20051;-67
2022/06/14 02:23:37;;;;;;;0.10;0.10;;;11.30;99.90;;;;;;4894818;29;19923;-67
2022/06/14 02:26:26;;;;;;;0.10;0.10;;;11.30;99.90;;;;;;4911740;29;20496;-67
2022/06/14 02:29:10;;;;;;;5.90;1.42;;;11.20;99.90;;;;;;4911780;29;20059;-67
2022/06/14 02:31:54;;;;;;;0.70;0.70;;;11.20;99.90;;;;;;4913292;29;20188;-67
2022/06/14 02:34:39;;;;;;;0.10;0.10;;;11.20;99.90;;;;;;4913683;29;20044;-67
2022/06/14 02:37:17;;;;;;;0.00;0.00;;;11.10;99.90;;;;;;4909918;29;20059;-67
2022/06/14 02:39:50;;;;;;;0.20;0.20;;;11.00;99.90;;;;;;4913578;29;20044;-67
2022/06/14 02:42:39;;;;;;;0.17;0.17;;;11.10;99.90;;;;;;4914268;29;20041;-67
2022/06/14 02:45:18;;;;;;;0.10;0.10;;;11.10;99.90;;;;;;4914400;29;20404;-67
2022/06/14 02:47:58;;;;;;;0.15;0.15;;;11.10;99.90;;;;;;4911709;29;20059;-67
2022/06/14 02:50:29;;;;;;;0.10;0.10;;;11.00;99.90;;;;;;4913037;29;20140;-67
2022/06/14 02:53:14;;;;;;;10.02;1.40;;;11.00;99.90;;;;;;4900717;29;20048;-67
2022/06/14 02:55:51;;;;;;;0.10;0.10;;;10.90;99.90;;;;;;4894758;29;20040;-67
2022/06/14 02:58:20;;;;;;;1.80;0.73;;;11.00;99.90;;;;;;4910810;29;20229;-67
2022/06/14 03:00:52;;;;;;;0.28;0.28;;;11.00;99.90;;;;;;4909788;29;20120;-67
2022/06/14 03:03:34;;;;;;;0.10;0.10;;;11.00;99.90;;;;;;4912218;29;20645;-67
2022/06/14 03:06:11;;;;;;;3.90;0.35;;;11.00;99.90;;;;;;4912942;29;20063;-67
2022/06/14 03:08:50;;;;;;;0.13;0.13;;;10.90;99.90;;;;;;4907932;29;20444;-67
2022/06/14 03:11:53;;;;;;;6.55;1.65;;;10.90;99.90;;;;;;4912297;29;20048;-67
2022/06/14 03:14:57;;;;;;;0.17;0.17;;;10.90;99.90;;;;;;4909484;29;20052;-67
2022/06/14 03:17:33;;;;;;;0.10;0.10;;;11.00;99.90;;;;;;4907604;29;20373;-67
2022/06/14 03:20:02;;;;;;;0.20;0.20;;;11.00;99.90;;;;;;4913694;29;20412;-67
2022/06/14 03:22:47;;;;;;;0.00;0.00;;;11.00;99.90;;;;;;4892983;29;20409;-67
2022/06/14 03:25:30;;;;;;;0.63;0.63;;;10.90;99.90;;;;;;4895155;29;20126;-67
2022/06/14 03:28:07;;;;;;;15.43;1.57;;;10.90;99.90;;;;;;4895062;29;20052;-67
2022/06/14 03:30:44;;;;;;;0.10;0.10;;;10.90;99.90;;;;;;4893112;29;20349;-67
2022/06/14 03:33:28;;;;;;;0.10;0.10;;;11.00;99.90;;;;;;4892000;29;20076;-67
2022/06/14 03:35:55;;;;;;;0.43;0.43;;;11.10;99.90;;;;;;4905086;29;20425;-67
2022/06/14 03:38:32;;;;;;;0.00;0.00;;;11.10;99.90;;;;;;4913767;29;20062;-67
2022/06/14 03:40:58;;;;;;;0.10;0.10;;;10.90;99.90;;;;;;4909032;29;20040;-67
2022/06/14 03:43:24;;;;;;;0.17;0.17;;;10.90;99.90;;;;;;4915871;29;20381;-67
2022/06/14 03:46:05;;;;;;;0.00;0.00;;;11.00;99.90;;;;;;4911706;29;20127;-67
2022/06/14 03:48:33;;;;;;;1.55;0.85;;;10.90;99.90;;;;;;4898232;29;20060;-67
2022/06/14 03:51:21;;;;;;;0.00;0.00;;;11.00;99.90;;;;;;4897377;29;20052;-67
2022/06/14 03:54:24;;;;;;;0.00;0.00;;;11.00;99.90;;;;;;4898534;29;20052;-67
2022/06/14 03:57:00;;;;;;;0.10;0.10;;;10.90;99.90;;;;;;4897772;29;20087;-67
2022/06/14 03:59:39;;;;;;;0.10;0.10;;;10.90;99.90;;;;;;4898563;29;20455;-67
2022/06/14 04:02:20;;;;;;;0.10;0.10;;;11.00;99.90;;;;;;4895321;29;20049;-67
2022/06/14 04:04:49;;;;;;;0.68;0.68;;;11.00;99.90;;;;;;4908610;29;20056;-67
2022/06/14 04:07:34;;;;;;;0.00;0.00;;;11.00;99.90;;;;;;4912413;29;20083;-67
2022/06/14 04:10:10;;;;;;;0.30;0.30;;;11.00;99.90;;;;;;4907175;29;20067;-67
2022/06/14 04:13:01;;;;;;;0.10;0.10;;;11.00;99.90;;;;;;4914344;29;20505;-67
2022/06/14 04:15:45;;;;;;;0.10;0.10;;;11.10;99.90;;;;;;4907164;29;20480;-67
2022/06/14 04:19:09;;;;;;;2.15;1.95;;;11.10;99.90;;;;;;4896241;29;20118;-67
2022/06/14 04:21:51;;;;;;;0.20;0.20;;;11.10;99.90;;;;;;4895715;29;20096;-67
2022/06/14 04:24:36;;;;;;;0.10;0.10;;;11.20;99.90;;;;;;4896836;29;20405;-67
2022/06/14 04:27:07;;;;;;;0.00;0.00;;;11.40;99.90;;;;;;4896185;29;20037;-67
2022/06/14 04:29:54;;;;;;;0.63;0.63;;;11.50;99.90;;;;;;4896374;29;20080;-67
2022/06/14 04:32:55;;;;;;;0.10;0.10;;;11.50;99.90;;;;;;4895866;29;20931;-67
2022/06/14 04:35:40;;;;;;;0.10;0.10;;;11.60;99.90;;;;;;4895909;29;20055;-67
2022/06/14 04:38:10;;;;;;;0.10;0.10;;;11.70;99.90;;;;;;4897758;29;20147;-67
2022/06/14 04:40:50;;;;;;;0.10;0.10;;;11.80;99.90;;;;;;4913120;29;20052;-67
2022/06/14 04:43:24;;;;;;;1.33;0.77;;;11.80;99.90;;;;;;4898179;29;20051;-67
2022/06/14 04:46:03;;;;;;;1.08;0.35;;;11.80;99.90;;;;;;4897905;29;20421;-67
2022/06/14 04:48:38;;;;;;;0.20;0.20;;;11.90;99.90;;;;;;4897285;29;20119;-67
2022/06/14 04:51:24;;;;;;;0.45;0.38;;;11.90;99.90;;;;;;4898548;29;20052;-67
2022/06/14 04:53:54;;;;;;;1.25;0.80;;;12.00;99.90;;;;;;4896081;29;20140;-67
2022/06/14 04:56:24;;;;;;;0.10;0.10;;;12.00;99.90;;;;;;4897235;29;20125;-67
2022/06/14 04:58:56;;;;;;;0.30;0.30;;;12.10;99.90;;;;;;4897740;29;20059;-66
2022/06/14 05:01:30;;;;;;;0.10;0.10;;;12.10;99.90;;;;;;4896427;29;20045;-67
2022/06/14 05:04:02;;;;;;;0.63;0.63;;;12.20;99.90;;;;;;4897110;29;20053;-67
2022/06/14 05:06:47;;;;;;;0.00;0.00;;;12.30;99.90;;;;;;4898298;29;20051;-67
2022/06/14 05:09:21;;;;;;;0.10;0.10;;;12.30;99.90;;;;;;4895194;29;20063;-67
2022/06/14 05:12:00;;;;;;;0.00;0.00;;;12.40;99.90;;;;;;4896192;29;20407;-67
2022/06/14 05:14:42;;;;;;;0.22;0.22;;;12.40;99.90;;;;;;4902235;29;20100;-67
2022/06/14 05:17:32;;;;;;;0.10;0.10;;;12.40;99.90;;;;;;4915607;29;20079;-67
2022/06/14 05:20:00;;;;;;;0.00;0.00;;;12.50;99.90;;;;;;4915704;29;20129;-67
2022/06/14 05:22:38;;;;;;;0.30;0.30;;;12.50;99.90;;;;;;4910476;29;20104;-67
2022/06/14 05:25:06;;;;;;;0.00;0.00;;;12.60;99.90;;;;;;4915824;29;20075;-67
2022/06/14 05:27:46;;;;;;;0.10;0.10;;;12.60;99.90;;;;;;4915641;29;20131;-67
2022/06/14 05:30:30;;;;;;;0.10;0.10;;;12.70;99.90;;;;;;4903252;29;20059;-67
2022/06/14 05:33:20;;;;;;;0.10;0.10;;;12.70;99.90;;;;;;4896524;29;20148;-67
2022/06/14 05:36:08;;;;;;;0.55;0.55;;;12.80;99.90;;;;;;4895166;29;20063;-67
2022/06/14 05:38:56;;;;;;;0.10;0.10;;;12.90;99.90;;;;;;4895385;29;20050;-67
2022/06/14 05:41:47;;;;;;;0.00;0.00;;;13.10;99.90;;;;;;4896132;29;20096;-67
2022/06/14 05:44:31;;;;;;;0.10;0.10;;;13.10;99.90;;;;;;4895252;29;20049;-66
2022/06/14 05:47:03;;;;;;;0.10;0.10;;;13.20;99.90;;;;;;4896904;29;20052;-67
2022/06/14 05:49:34;;;;;;;0.30;0.30;;;13.30;99.90;;;;;;4894231;29;20060;-67
2022/06/14 05:52:13;;;;;;;0.10;0.10;;;13.40;99.90;;;;;;4898610;29;20063;-67
2022/06/14 05:54:46;;;;;;;0.10;0.10;;;13.50;99.90;;;;;;4915125;29;20087;-67
2022/06/14 05:57:37;;;;;;;0.32;0.32;;;13.50;99.90;;;;;;4914493;29;20055;-66
2022/06/14 06:00:11;;;;;;;0.00;0.00;;;13.60;99.90;;;;;;4902394;29;20052;-67
2022/06/14 06:03:15;;;;;;;1.77;1.65;;;13.60;99.90;;;;;;4910528;29;20044;-67
2022/06/14 06:05:45;;;;;;;0.10;0.10;;;13.70;99.90;;;;;;4914201;29;20048;-67
2022/06/14 06:08:26;;;;;;;0.28;0.25;;;13.80;99.90;;;;;;4908867;29;20504;-67
2022/06/14 06:10:56;;;;;;;0.50;0.50;;;13.90;99.90;;;;;;4914126;29;20055;-67
2022/06/14 06:13:30;;;;;;;0.10;0.10;;;13.90;99.90;;;;;;4914632;29;20048;-67
2022/06/14 06:16:20;;;;;;;0.25;0.25;;;13.90;99.90;;;;;;4910917;29;20040;-67
2022/06/14 06:19:05;;;;;;;0.10;0.10;;;14.00;99.90;;;;;;4913018;29;20052;-67
2022/06/14 06:21:41;;;;;;;0.00;0.00;;;14.10;99.90;;;;;;4910666;29;20048;-67
2022/06/14 06:24:19;;;;;;;0.20;0.20;;;14.20;99.90;;;;;;4911095;29;20107;-67
2022/06/14 06:26:52;;;;;;;0.93;0.68;;;14.20;99.90;;;;;;4911006;29;20523;-67
2022/06/14 06:29:27;;;;;;;0.03;0.03;;;14.30;99.90;;;;;;4912966;29;20056;-67
2022/06/14 06:31:53;;;;;;;0.00;0.00;;;14.30;99.90;;;;;;4912604;29;20066;-67
2022/06/14 06:34:19;;;;;;;0.10;0.10;;;14.40;99.90;;;;;;4899397;29;20056;-67
2022/06/14 06:36:59;;;;;;;0.10;0.10;;;14.40;99.90;;;;;;4895538;29;20060;-67
2022/06/14 06:39:28;;;;;;;0.25;0.25;;;14.50;99.90;;;;;;4896547;29;20036;-67
2022/06/14 06:42:04;;;;;;;0.10;0.10;;;14.60;99.90;;;;;;4914202;29;20056;-67
2022/06/14 06:44:47;;;;;;;0.10;0.10;;;14.70;99.90;;;;;;4913202;29;20056;-67
2022/06/14 06:47:19;;;;;;;0.10;0.10;;;14.70;99.90;;;;;;4912590;29;20092;-67
2022/06/14 06:49:51;;;;;;;0.13;0.13;;;14.80;99.90;;;;;;4895988;29;20156;-67
2022/06/14 06:52:25;;;;;;;0.10;0.10;;;14.90;99.90;;;;;;4893891;29;20051;-67
2022/06/14 06:55:02;;;;;;;0.25;0.25;;;14.90;99.90;;;;;;4895890;29;20056;-67
2022/06/14 06:57:31;;;;;;;0.10;0.10;;;15.00;99.90;;;;;;4905515;29;20055;-67
2022/06/14 06:59:59;;;;;;;0.10;0.10;;;15.10;99.90;;;;;;4895967;29;20053;-67
2022/06/14 07:02:49;;;;;;;0.10;0.10;;;15.20;99.90;;;;;;4895153;29;20036;-67
2022/06/14 07:05:17;;;;;;;0.10;0.10;;;15.20;99.90;;;;;;4894865;29;20659;-67
2022/06/14 07:07:57;;;;;;;0.65;0.65;;;15.30;99.90;;;;;;4893656;29;20045;-67
2022/06/14 07:10:48;;;;;;;0.10;0.10;;;15.30;99.90;;;;;;4893791;29;20504;-67
2022/06/14 07:13:27;;;;;;;0.10;0.10;;;15.40;99.90;;;;;;4895120;29;20056;-68
2022/06/14 07:16:02;;;;;;;0.10;0.10;;;15.50;99.90;;;;;;4894629;29;20374;-68
2022/06/14 07:18:37;;;;;;;1.65;0.68;;;15.50;99.90;;;;;;4901917;29;20116;-68
2022/06/14 07:21:14;;;;;;;2.13;0.95;;;15.70;99.90;;;;;;4899663;29;20052;-67
2022/06/14 07:23:57;;;;;;;0.00;0.00;;;15.70;99.90;;;;;;4911186;29;20068;-68
2022/06/14 07:26:32;;;;;;;0.13;0.13;;;15.70;99.90;;;;;;4902474;29;20043;-68
2022/06/14 07:29:14;;;;;;;0.00;0.00;;;15.70;99.90;;;;;;4900393;29;20505;-68
2022/06/14 07:32:23;;;;;;;0.10;0.10;;;15.70;99.90;;;;;;4900104;29;20068;-68
2022/06/14 07:34:49;;;;;;;0.00;0.00;;;15.80;99.90;;;;;;4890643;29;20116;-68
2022/06/14 07:37:20;;;;;;;0.30;0.30;;;16.00;99.90;;;;;;4902154;29;20048;-68
2022/06/14 07:40:05;;;;;;;1.98;0.95;;;16.10;99.90;;;;;;4911151;29;20052;-68
2022/06/14 07:43:00;;;;;;;1.65;1.13;;;16.20;99.90;;;;;;4919162;29;20404;-68
2022/06/14 07:45:34;;;;;;;0.10;0.10;;;16.30;99.90;;;;;;4917635;29;20052;-68
2022/06/14 07:48:08;;;;;;;0.10;0.10;;;16.30;99.90;;;;;;4919870;29;20083;-68
2022/06/14 07:50:46;;;;;;;0.10;0.10;;;16.20;99.90;;;;;;4919512;29;20047;-67
2022/06/14 07:53:28;;;;;;;0.10;0.10;;;16.10;99.90;;;;;;4902430;29;20056;-68
2022/06/14 07:55:59;;;;;;;0.10;0.10;;;16.00;99.90;;;;;;4900822;29;20100;-68
2022/06/14 07:58:46;;;;;;;0.00;0.00;;;16.00;99.90;;;;;;4901239;29;20044;-67
2022/06/14 08:01:28;;;;;;;1.52;0.82;;;16.10;99.90;;;;;;4902837;29;20504;-68
2022/06/14 08:04:01;;;;;;;0.00;0.00;;;16.20;99.90;;;;;;4899298;29;20088;-68
2022/06/14 08:06:38;;;;;;;0.03;0.03;;;16.30;99.90;;;;;;4906121;29;20130;-68
2022/06/14 08:09:15;;;;;;;0.10;0.10;;;16.50;99.90;;;;;;4917038;29;20524;-68
2022/06/14 08:11:55;;;;;;;0.10;0.10;;;16.50;99.90;;;;;;4900617;29;20408;-68
2022/06/14 08:14:53;;;;;;;16.88;3.10;;;16.60;99.90;;;;;;4906264;29;20401;-68
2022/06/14 08:17:37;;;;;;;0.10;0.10;;;16.50;99.90;;;;;;4907420;29;20067;-68
2022/06/14 08:20:30;;;;;;;0.10;0.10;;;16.40;99.90;;;;;;4914345;29;20381;-68
2022/06/14 08:23:03;;;;;;;0.20;0.20;;;16.40;99.90;;;;;;4919692;29;20486;-68
2022/06/14 08:25:34;;;;;;;0.28;0.28;;;16.30;99.90;;;;;;4919086;29;20094;-68
2022/06/14 08:28:10;;;;;;;0.10;0.10;;;16.30;99.90;;;;;;4914125;29;20522;-68
2022/06/14 08:30:45;;;;;;;2.20;0.43;;;16.20;99.90;;;;;;4915163;29;20087;-68
2022/06/14 08:33:37;;;;;;;0.52;0.52;;;16.20;99.90;;;;;;4912737;29;20060;-68
2022/06/14 08:36:08;;;;;;;0.10;0.10;;;16.20;99.90;;;;;;4897238;29;20492;-68
2022/06/14 08:38:37;;;;;;;0.10;0.10;;;16.30;99.90;;;;;;4908153;29;20040;-68
2022/06/14 08:41:47;;;;;;;0.10;0.10;;;16.40;99.90;;;;;;4900439;29;20049;-68
2022/06/14 08:44:22;;;;;;;0.20;0.20;;;16.50;99.90;;;;;;4897701;29;20064;-68
2022/06/14 08:47:15;;;;;;;0.00;0.00;;;16.70;99.90;;;;;;4898381;29;20045;-68
2022/06/14 08:49:59;;;;;;;0.07;0.07;;;16.80;99.90;;;;;;4897476;29;20048;-68
2022/06/14 08:53:01;;;;;;;0.10;0.10;;;16.90;99.90;;;;;;4897043;29;20048;-68
2022/06/14 08:55:55;;;;;;;0.10;0.10;;;17.00;99.90;;;;;;4896572;29;20062;-68
2022/06/14 08:58:32;;;;;;;0.10;0.10;;;16.90;99.90;;;;;;4897423;29;20056;-68
2022/06/14 09:01:27;;;;;;;0.10;0.10;;;16.90;99.90;;;;;;4894992;29;20049;-68
2022/06/14 09:04:19;;;;;;;0.10;0.10;;;16.80;99.90;;;;;;4897422;29;20394;-68
2022/06/14 09:06:56;;;;;;;0.00;0.00;;;16.80;99.90;;;;;;4878670;29;20057;-68
2022/06/14 09:09:44;;;;;;;0.00;0.00;;;16.70;99.90;;;;;;4911137;29;20058;-68
2022/06/14 09:12:32;;;;;;;0.00;0.00;;;16.80;99.90;;;;;;4914494;29;20385;-68
2022/06/14 09:15:06;;;;;;;0.10;0.10;;;16.80;99.90;;;;;;4900491;29;20056;-68
2022/06/14 09:17:52;;;;;;;0.00;0.00;;;16.80;99.90;;;;;;4896997;29;20128;-68
2022/06/14 09:20:35;;;;;;;0.00;0.00;;;16.90;99.90;;;;;;4895186;29;20056;-68
2022/06/14 09:23:38;;;;;;;0.00;0.00;;;17.00;99.90;;;;;;4908920;29;20040;-68
2022/06/14 09:26:22;;;;;;;0.63;0.63;;;17.20;99.90;;;;;;4899595;29;20064;-68
2022/06/14 09:29:21;;;;;;;0.77;0.30;;;17.40;99.90;;;;;;4913687;29;20527;-67
2022/06/14 09:32:14;;;;;;;0.10;0.10;;;17.70;99.90;;;;;;4911084;29;20055;-67
2022/06/14 09:34:52;;;;;;;0.10;0.10;;;17.90;99.90;;;;;;4907713;29;20052;-68
2022/06/14 09:37:36;;;;;;;0.08;0.08;;;18.10;99.90;;;;;;4914198;29;20056;-68
2022/06/14 09:40:11;;;;;;;;;;;18.20;99.90;;;;;;4901950;29;20218;-67
2022/06/14 09:42:45;;;;;;;0.03;0.03;;;18.40;99.90;;;;;;4895730;29;19923;-67
2022/06/14 09:45:16;;;;;;;0.00;0.00;;;18.50;99.90;;;;;;4897160;29;20560;-67
2022/06/14 09:47:48;;;;;;;0.03;0.03;;;18.70;99.90;;;;;;4896139;29;20393;-67
2022/06/14 09:50:48;;;;;;;0.20;0.20;;;18.90;99.90;;;;;;4895581;29;20095;-67
2022/06/14 09:53:24;;;;;;;0.15;0.15;;;18.80;99.90;;;;;;4888060;29;20477;-68
2022/06/14 09:55:58;;;;;;;0.10;0.10;;;19.10;99.90;;;;;;4894492;29;20048;-67
2022/06/14 09:59:04;;;;;;;0.05;0.05;;;19.50;99.90;;;;;;4905768;29;20131;-67
2022/06/14 10:01:58;;;;;;;0.20;0.20;;;19.70;99.90;;;;;;4914793;29;20601;-67
2022/06/14 10:04:43;;;;;;;1.27;1.17;;;19.80;99.90;;;;;;4912851;29;20518;-68
2022/06/14 10:07:32;;;;;;;0.52;0.20;;;19.40;99.90;;;;;;4907793;29;20210;-67
2022/06/14 10:10:13;;;;;;;0.32;0.32;;;19.10;99.90;;;;;;4913967;29;20084;-67
2022/06/14 10:12:51;;;;;;;0.25;0.22;;;19.00;99.90;;;;;;4911499;29;20056;-67
2022/06/14 10:15:21;;;;;;;0.40;0.30;;;19.00;99.90;;;;;;4895865;29;20076;-68
2022/06/14 10:18:05;;;;;;;0.00;0.00;;;19.30;99.90;;;;;;4895345;29;20497;-67
2022/06/14 10:20:38;;;;;;;0.30;0.30;;;19.80;99.90;;;;;;4895811;29;20045;-68
2022/06/14 10:23:12;;;;;;;0.10;0.10;;;19.60;99.90;;;;;;4896796;29;20124;-67
2022/06/14 10:29:13;;;;;;;0.00;0.00;;;19.10;99.90;;;;;;4854755;29;20074;-67
2022/06/14 10:32:16;;;;;;;0.00;0.00;;;18.80;99.90;;;;;;4893295;29;20061;-67
2022/06/14 10:35:04;;;;;;;0.00;0.00;;;18.70;99.90;;;;;;4898383;29;20048;-67
2022/06/14 10:37:59;;;;;;;3.60;1.42;;;18.90;99.90;;;;;;4912990;29;20400;-68
2022/06/14 10:40:35;;;;;;;1.10;0.70;;;19.60;99.90;;;;;;4914329;29;20055;-68
2022/06/14 10:43:08;;;;;;;0.10;0.10;;;19.80;99.90;;;;;;4910424;29;20051;-68
2022/06/14 10:45:54;;;;;;;0.57;0.57;;;20.00;99.90;;;;;;4907998;29;20107;-68
2022/06/14 10:49:00;;;;;;;0.20;0.20;;;20.20;99.90;;;;;;4914123;29;20131;-68
2022/06/14 10:51:44;;;;;;;0.00;0.00;;;20.10;99.90;;;;;;4908500;29;20127;-68
2022/06/14 10:54:20;;;;;;;0.80;0.73;;;20.00;99.90;;;;;;4910535;29;20051;-68
2022/06/14 10:57:11;;;;;;;0.10;0.10;;;20.40;99.90;;;;;;4912890;29;20048;-68
2022/06/14 10:59:55;;;;;;;0.08;0.08;;;20.20;99.90;;;;;;4913320;29;20496;-67
2022/06/14 11:02:39;;;;;;;0.10;0.10;;;19.80;99.90;;;;;;4896854;29;20084;-68
2022/06/14 11:05:19;;;;;;;0.45;0.45;;;19.60;99.90;;;;;;4893662;29;20639;-67
2022/06/14 11:08:07;;;;;;;0.00;0.00;;;19.50;99.90;;;;;;4894472;29;20052;-67
2022/06/14 11:10:38;;;;;;;0.25;0.25;;;20.00;99.90;;;;;;4893500;29;20610;-68
2022/06/14 11:13:19;;;;;;;0.00;0.00;;;20.50;99.90;;;;;;4894230;29;20060;-67
2022/06/14 11:15:57;;;;;;;0.10;0.10;;;20.90;99.90;;;;;;4908978;29;20049;-68
2022/06/14 11:18:41;;;;;;;0.00;0.00;;;21.20;99.90;;;;;;4910624;29;20058;-67
2022/06/14 11:21:32;;;;;;;0.00;0.00;;;21.10;99.90;;;;;;4911219;29;20055;-67
2022/06/14 11:24:10;;;;;;;14.40;0.35;;;21.10;99.90;;;;;;4913887;29;20407;-68
2022/06/14 11:26:59;;;;;;;0.10;0.10;;;21.50;99.90;;;;;;4906216;29;20135;-68
2022/06/14 11:29:35;;;;;;;2.40;1.52;;;21.30;99.90;;;;;;4895193;29;20404;-67
2022/06/14 11:32:35;;;;;;;0.70;0.70;;;21.10;99.90;;;;;;4894512;29;20143;-67
2022/06/14 11:35:36;;;;;;;4.70;1.50;;;20.70;99.90;;;;;;4879431;29;20071;-68
2022/06/14 11:38:11;;;;;;;0.10;0.10;;;20.40;99.90;;;;;;4894360;29;20453;-67
2022/06/14 11:40:44;;;;;;;0.00;0.00;;;20.30;99.90;;;;;;4906856;29;20044;-67
2022/06/14 11:43:22;;;;;;;0.00;0.00;;;20.20;99.90;;;;;;4911203;29;20099;-67
2022/06/14 11:46:06;;;;;;;0.20;0.20;;;20.20;99.90;;;;;;4914249;29;20111;-67
2022/06/14 11:48:52;;;;;;;0.10;0.10;;;20.10;99.90;;;;;;4911758;29;20062;-67
2022/06/14 11:51:32;;;;;;;0.10;0.10;;;20.10;99.90;;;;;;4894501;29;20060;-68
2022/06/14 11:54:23;;;;;;;0.00;0.00;;;20.30;99.90;;;;;;4895040;29;20108;-67
2022/06/14 11:57:12;;;;;;;0.00;0.00;;;20.30;99.90;;;;;;4894419;29;20052;-67
2022/06/14 12:00:06;;;;;;;0.00;0.00;;;20.20;99.90;;;;;;4894551;29;20401;-67
2022/06/14 12:02:57;;;;;;;0.10;0.10;;;20.20;99.90;;;;;;4893612;29;20041;-67
2022/06/14 12:05:37;;;;;;;0.00;0.00;;;20.10;99.90;;;;;;4896744;29;20417;-67
2022/06/14 12:08:13;;;;;;;0.05;0.05;;;20.10;99.90;;;;;;4896552;29;20626;-67
2022/06/14 12:10:58;;;;;;;1.45;0.52;;;20.10;99.90;;;;;;4909438;29;20048;-67
2022/06/14 12:13:50;;;;;;;0.00;0.00;;;20.00;99.90;;;;;;4915415;29;20382;-67
2022/06/14 12:16:34;;;;;;;0.00;0.00;;;20.10;99.90;;;;;;4910471;29;20088;-67
2022/06/14 12:19:09;;;;;;;0.10;0.10;;;20.20;99.90;;;;;;4899558;29;20087;-68
2022/06/14 12:21:38;;;;;;;0.00;0.00;;;20.20;99.90;;;;;;4897820;29;20548;-67
2022/06/14 12:24:08;;;;;;;0.00;0.00;;;20.30;99.90;;;;;;4895859;29;20052;-67
2022/06/14 12:26:43;;;;;;;0.00;0.00;;;20.20;99.90;;;;;;4913060;29;20563;-67
2022/06/14 12:29:27;;;;;;;0.00;0.00;;;20.40;99.90;;;;;;4906933;29;20385;-67
2022/06/14 12:32:18;;;;;;;0.00;0.00;;;20.60;99.90;;;;;;4896910;29;20123;-67
2022/06/14 12:34:54;;;;;;;0.13;0.13;;;20.80;99.90;;;;;;4916341;29;20137;-67
2022/06/14 12:37:41;;;;;;;1.10;0.68;;;20.90;99.90;;;;;;4915655;29;20123;-67
2022/06/14 12:40:31;;;;;;;0.10;0.10;;;21.00;99.90;;;;;;4910637;29;20037;-67
2022/06/14 12:43:19;;;;;;;0.00;0.00;;;21.00;99.90;;;;;;4916516;29;20056;-67
2022/06/14 12:45:50;;;;;;;0.10;0.10;;;21.50;99.90;;;;;;4916314;29;20126;-67
2022/06/14 12:48:38;;;;;;;0.20;0.20;;;21.90;99.90;;;;;;4914885;29;20575;-67
2022/06/14 12:51:30;;;;;;;0.00;0.00;;;22.00;99.90;;;;;;4913060;29;20087;-68
2022/06/14 12:54:22;;;;;;;0.00;0.00;;;22.20;99.90;;;;;;4915390;29;20062;-67
2022/06/14 12:57:06;;;;;;;0.10;0.10;;;22.50;99.90;;;;;;4910334;29;20049;-68
2022/06/14 12:59:55;;;;;;;0.05;0.05;;;22.50;99.90;;;;;;4907432;29;20048;-68
2022/06/14 13:02:41;;;;;;;0.20;0.20;;;22.30;99.90;;;;;;4915996;29;20381;-67
2022/06/14 13:05:10;;;;;;;0.10;0.10;;;22.10;99.90;;;;;;4902012;29;20397;-67
2022/06/14 13:07:47;;;;;;;0.00;0.00;;;21.90;99.90;;;;;;4896455;29;20092;-67
2022/06/14 13:10:27;;;;;;;0.10;0.10;;;21.90;99.90;;;;;;4897292;29;20425;-67
2022/06/14 13:13:28;;;;;;;0.00;0.00;;;22.50;99.90;;;;;;4897438;29;20147;-67
2022/06/14 13:16:14;;;;;;;0.00;0.00;;;22.70;99.90;;;;;;4896362;29;20493;-67
2022/06/14 13:19:02;;;;;;;0.00;0.00;;;23.30;99.90;;;;;;4897130;29;20044;-68
2022/06/14 13:21:43;;;;;;;0.00;0.00;;;22.80;99.90;;;;;;4893775;29;20056;-68
2022/06/14 13:24:39;;;;;;;0.70;0.70;;;22.70;99.90;;;;;;4895421;29;20062;-68
2022/06/14 13:27:28;;;;;;;0.00;0.00;;;22.90;99.90;;;;;;4894327;29;20071;-67
2022/06/14 13:30:03;;;;;;;0.10;0.10;;;22.50;99.90;;;;;;4912260;29;20492;-68
2022/06/14 13:32:35;;;;;;;0.70;0.70;;;22.00;99.90;;;;;;4915347;29;20064;-67
2022/06/14 13:35:19;;;;;;;0.10;0.10;;;21.90;99.90;;;;;;4896435;29;20100;-68
2022/06/14 13:37:49;;;;;;;0.03;0.03;;;21.70;99.90;;;;;;4895604;29;20060;-67
2022/06/14 13:40:40;;;;;;;0.00;0.00;;;21.30;99.90;;;;;;4904759;29;20138;-67
2022/06/14 13:43:30;;;;;;;0.03;0.03;;;21.30;99.90;;;;;;4905783;29;20052;-67
2022/06/14 13:46:25;;;;;;;0.00;0.00;;;21.00;99.90;;;;;;4914484;29;20052;-67
2022/06/14 13:49:22;;;;;;;0.10;0.10;;;20.80;99.90;;;;;;4897191;29;20048;-67
2022/06/14 13:51:56;;;;;;;0.17;0.17;;;20.80;99.90;;;;;;4912754;29;20135;-67
2022/06/14 13:54:41;;;;;;;0.28;0.25;;;20.90;99.90;;;;;;4896309;29;20104;-68
2022/06/14 13:57:19;;;;;;;0.00;0.00;;;20.70;99.90;;;;;;4909242;29;20052;-67
2022/06/14 13:59:48;;;;;;;0.00;0.00;;;20.70;99.90;;;;;;4915288;29;20044;-67
2022/06/14 14:02:18;;;;;;;0.08;0.05;;;20.50;99.90;;;;;;4914190;29;20415;-67